sensor_id;sensor_type;location;lat;lon;timestamp;P1;durP1;ratioP1;P2;durP2;ratioP2
43606;SDS011;29197;44.788;10.366;2022-09-03T00:00:22;4.90;;;3.38;;
43606;SDS011;29197;44.788;10.366;2022-09-03T00:03:12;4.68;;;3.20;;
43606;SDS011;29197;44.788;10.366;2022-09-03T00:06:08;4.10;;;3.50;;
43606;SDS011;29197;44.788;10.366;2022-09-03T00:09:02;5.32;;;3.60;;
43606;SDS011;29197;44.788;10.366;2022-09-03T00:11:57;5.10;;;3.30;;
43606;SDS011;29197;44.788;10.366;2022-09-03T00:14:54;4.80;;;3.28;;
43606;SDS011;29197;44.788;10.366;2022-09-03T00:17:50;4.00;;;3.30;;
43606;SDS011;29197;44.788;10.366;2022-09-03T00:20:43;4.57;;;3.92;;
43606;SDS011;29197;44.788;10.366;2022-09-03T00:23:37;5.88;;;3.08;;
43606;SDS011;29197;44.788;10.366;2022-09-03T00:26:30;3.88;;;3.47;;
43606;SDS011;29197;44.788;10.366;2022-09-03T00:29:23;4.30;;;3.55;;
43606;SDS011;29197;44.788;10.366;2022-09-03T00:32:17;6.22;;;3.25;;
43606;SDS011;29197;44.788;10.366;2022-09-03T00:35:13;5.38;;;3.55;;
43606;SDS011;29197;44.788;10.366;2022-09-03T00:38:07;3.97;;;3.50;;
43606;SDS011;29197;44.788;10.366;2022-09-03T00:41:00;6.43;;;3.63;;
43606;SDS011;29197;44.788;10.366;2022-09-03T00:44:01;5.38;;;4.18;;
43606;SDS011;29197;44.788;10.366;2022-09-03T00:47:09;5.32;;;3.78;;
43606;SDS011;29197;44.788;10.366;2022-09-03T00:50:06;8.10;;;5.38;;
43606;SDS011;29197;44.788;10.366;2022-09-03T00:53:04;4.80;;;4.40;;
43606;SDS011;29197;44.788;10.366;2022-09-03T00:56:06;5.68;;;3.40;;
43606;SDS011;29197;44.788;10.366;2022-09-03T00:59:15;4.60;;;3.30;;
43606;SDS011;29197;44.788;10.366;2022-09-03T01:02:17;4.45;;;3.53;;
43606;SDS011;29197;44.788;10.366;2022-09-03T01:05:23;5.43;;;4.03;;
43606;SDS011;29197;44.788;10.366;2022-09-03T01:08:26;4.95;;;4.38;;
43606;SDS011;29197;44.788;10.366;2022-09-03T01:11:32;6.65;;;4.68;;
43606;SDS011;29197;44.788;10.366;2022-09-03T01:14:40;4.88;;;4.38;;
43606;SDS011;29197;44.788;10.366;2022-09-03T01:17:42;5.53;;;5.03;;
43606;SDS011;29197;44.788;10.366;2022-09-03T01:20:34;5.93;;;4.28;;
43606;SDS011;29197;44.788;10.366;2022-09-03T01:52:12;5.03;;;2.95;;
43606;SDS011;29197;44.788;10.366;2022-09-03T01:55:08;7.13;;;3.70;;
43606;SDS011;29197;44.788;10.366;2022-09-03T01:58:10;4.63;;;3.70;;
43606;SDS011;29197;44.788;10.366;2022-09-03T02:01:06;4.97;;;3.63;;
43606;SDS011;29197;44.788;10.366;2022-09-03T02:04:12;3.60;;;2.97;;
43606;SDS011;29197;44.788;10.366;2022-09-03T02:07:06;4.60;;;3.10;;
43606;SDS011;29197;44.788;10.366;2022-09-03T02:09:57;4.55;;;3.22;;
43606;SDS011;29197;44.788;10.366;2022-09-03T02:12:48;3.25;;;2.95;;
43606;SDS011;29197;44.788;10.366;2022-09-03T02:15:42;3.55;;;3.25;;
43606;SDS011;29197;44.788;10.366;2022-09-03T02:18:35;4.25;;;3.80;;
43606;SDS011;29197;44.788;10.366;2022-09-03T02:21:30;4.72;;;3.95;;
43606;SDS011;29197;44.788;10.366;2022-09-03T02:24:23;5.10;;;3.90;;
43606;SDS011;29197;44.788;10.366;2022-09-03T02:27:15;4.05;;;3.60;;
43606;SDS011;29197;44.788;10.366;2022-09-03T02:30:04;4.25;;;2.80;;
43606;SDS011;29197;44.788;10.366;2022-09-03T02:32:55;8.30;;;3.42;;
43606;SDS011;29197;44.788;10.366;2022-09-03T02:35:46;4.55;;;3.40;;
43606;SDS011;29197;44.788;10.366;2022-09-03T02:38:35;3.45;;;2.90;;
43606;SDS011;29197;44.788;10.366;2022-09-03T02:41:24;3.85;;;2.75;;
43606;SDS011;29197;44.788;10.366;2022-09-03T02:44:16;4.00;;;2.83;;
43606;SDS011;29197;44.788;10.366;2022-09-03T02:47:11;2.90;;;2.35;;
43606;SDS011;29197;44.788;10.366;2022-09-03T02:50:01;4.13;;;2.60;;
43606;SDS011;29197;44.788;10.366;2022-09-03T02:52:50;4.50;;;2.60;;
43606;SDS011;29197;44.788;10.366;2022-09-03T02:55:40;4.60;;;3.13;;
43606;SDS011;29197;44.788;10.366;2022-09-03T02:58:29;8.02;;;3.17;;
43606;SDS011;29197;44.788;10.366;2022-09-03T03:01:20;3.97;;;2.83;;
43606;SDS011;29197;44.788;10.366;2022-09-03T03:04:10;4.28;;;3.22;;
43606;SDS011;29197;44.788;10.366;2022-09-03T03:06:59;5.97;;;3.00;;
43606;SDS011;29197;44.788;10.366;2022-09-03T03:09:49;3.70;;;2.95;;
43606;SDS011;29197;44.788;10.366;2022-09-03T03:12:38;3.88;;;3.17;;
43606;SDS011;29197;44.788;10.366;2022-09-03T03:15:28;5.43;;;3.22;;
43606;SDS011;29197;44.788;10.366;2022-09-03T03:18:18;4.88;;;2.53;;
43606;SDS011;29197;44.788;10.366;2022-09-03T03:21:09;6.45;;;3.72;;
43606;SDS011;29197;44.788;10.366;2022-09-03T03:23:59;5.95;;;3.78;;
43606;SDS011;29197;44.788;10.366;2022-09-03T03:26:49;5.68;;;3.40;;
43606;SDS011;29197;44.788;10.366;2022-09-03T03:29:39;5.82;;;4.07;;
43606;SDS011;29197;44.788;10.366;2022-09-03T03:32:27;4.13;;;3.38;;
43606;SDS011;29197;44.788;10.366;2022-09-03T03:35:19;6.13;;;3.60;;
43606;SDS011;29197;44.788;10.366;2022-09-03T03:38:08;7.80;;;3.60;;
43606;SDS011;29197;44.788;10.366;2022-09-03T03:41:05;5.25;;;4.03;;
43606;SDS011;29197;44.788;10.366;2022-09-03T03:43:55;3.88;;;3.40;;
43606;SDS011;29197;44.788;10.366;2022-09-03T03:46:45;4.13;;;3.17;;
43606;SDS011;29197;44.788;10.366;2022-09-03T03:49:34;5.40;;;3.15;;
43606;SDS011;29197;44.788;10.366;2022-09-03T03:52:24;7.93;;;3.60;;
43606;SDS011;29197;44.788;10.366;2022-09-03T03:55:14;6.03;;;4.40;;
43606;SDS011;29197;44.788;10.366;2022-09-03T03:58:06;6.15;;;4.68;;
43606;SDS011;29197;44.788;10.366;2022-09-03T04:00:54;5.88;;;4.63;;
43606;SDS011;29197;44.788;10.366;2022-09-03T04:03:43;6.28;;;4.47;;
43606;SDS011;29197;44.788;10.366;2022-09-03T04:06:33;7.18;;;5.10;;
43606;SDS011;29197;44.788;10.366;2022-09-03T04:09:23;5.95;;;5.20;;
43606;SDS011;29197;44.788;10.366;2022-09-03T04:12:13;5.72;;;4.85;;
43606;SDS011;29197;44.788;10.366;2022-09-03T04:15:02;8.25;;;5.15;;
43606;SDS011;29197;44.788;10.366;2022-09-03T04:17:53;7.10;;;4.35;;
43606;SDS011;29197;44.788;10.366;2022-09-03T04:20:42;6.03;;;5.40;;
43606;SDS011;29197;44.788;10.366;2022-09-03T04:23:31;6.82;;;5.00;;
43606;SDS011;29197;44.788;10.366;2022-09-03T04:26:23;4.50;;;4.10;;
43606;SDS011;29197;44.788;10.366;2022-09-03T04:29:17;5.53;;;4.35;;
43606;SDS011;29197;44.788;10.366;2022-09-03T04:32:07;8.02;;;5.10;;
43606;SDS011;29197;44.788;10.366;2022-09-03T04:35:14;5.65;;;4.50;;
43606;SDS011;29197;44.788;10.366;2022-09-03T04:38:04;5.60;;;4.85;;
43606;SDS011;29197;44.788;10.366;2022-09-03T04:40:53;5.75;;;5.15;;
43606;SDS011;29197;44.788;10.366;2022-09-03T04:43:44;7.90;;;6.20;;
43606;SDS011;29197;44.788;10.366;2022-09-03T04:46:37;8.65;;;7.75;;
43606;SDS011;29197;44.788;10.366;2022-09-03T04:49:26;6.55;;;5.95;;
43606;SDS011;29197;44.788;10.366;2022-09-03T04:52:15;6.38;;;5.00;;
43606;SDS011;29197;44.788;10.366;2022-09-03T04:55:06;5.65;;;5.13;;
43606;SDS011;29197;44.788;10.366;2022-09-03T04:57:57;6.93;;;5.30;;
43606;SDS011;29197;44.788;10.366;2022-09-03T05:00:48;10.45;;;5.47;;
43606;SDS011;29197;44.788;10.366;2022-09-03T05:03:37;7.53;;;4.82;;
43606;SDS011;29197;44.788;10.366;2022-09-03T05:06:28;5.78;;;5.28;;
43606;SDS011;29197;44.788;10.366;2022-09-03T05:09:18;5.82;;;4.85;;
43606;SDS011;29197;44.788;10.366;2022-09-03T05:12:07;7.15;;;5.20;;
43606;SDS011;29197;44.788;10.366;2022-09-03T05:14:56;5.65;;;5.07;;
43606;SDS011;29197;44.788;10.366;2022-09-03T05:17:47;6.50;;;4.70;;
43606;SDS011;29197;44.788;10.366;2022-09-03T05:20:38;6.55;;;4.43;;
43606;SDS011;29197;44.788;10.366;2022-09-03T05:23:27;6.32;;;5.05;;
43606;SDS011;29197;44.788;10.366;2022-09-03T05:26:24;5.07;;;4.55;;
43606;SDS011;29197;44.788;10.366;2022-09-03T05:29:14;6.20;;;5.60;;
43606;SDS011;29197;44.788;10.366;2022-09-03T05:32:06;6.60;;;5.13;;
43606;SDS011;29197;44.788;10.366;2022-09-03T05:34:56;6.60;;;5.18;;
43606;SDS011;29197;44.788;10.366;2022-09-03T05:37:45;5.85;;;4.68;;
43606;SDS011;29197;44.788;10.366;2022-09-03T05:40:36;5.95;;;5.22;;
43606;SDS011;29197;44.788;10.366;2022-09-03T05:43:25;8.38;;;5.45;;
43606;SDS011;29197;44.788;10.366;2022-09-03T05:46:14;6.35;;;4.72;;
43606;SDS011;29197;44.788;10.366;2022-09-03T05:49:05;5.88;;;4.28;;
43606;SDS011;29197;44.788;10.366;2022-09-03T05:51:56;5.25;;;4.75;;
43606;SDS011;29197;44.788;10.366;2022-09-03T05:54:45;5.10;;;4.03;;
43606;SDS011;29197;44.788;10.366;2022-09-03T05:57:35;10.18;;;4.32;;
43606;SDS011;29197;44.788;10.366;2022-09-03T06:00:25;5.20;;;4.70;;
43606;SDS011;29197;44.788;10.366;2022-09-03T06:03:14;7.25;;;6.55;;
43606;SDS011;29197;44.788;10.366;2022-09-03T06:06:05;7.25;;;6.25;;
43606;SDS011;29197;44.788;10.366;2022-09-03T06:08:56;10.98;;;5.75;;
43606;SDS011;29197;44.788;10.366;2022-09-03T06:11:46;7.15;;;6.45;;
43606;SDS011;29197;44.788;10.366;2022-09-03T06:14:38;7.22;;;6.53;;
43606;SDS011;29197;44.788;10.366;2022-09-03T06:17:27;10.05;;;5.72;;
43606;SDS011;29197;44.788;10.366;2022-09-03T06:20:16;7.70;;;6.90;;
43606;SDS011;29197;44.788;10.366;2022-09-03T06:23:06;8.52;;;7.20;;
43606;SDS011;29197;44.788;10.366;2022-09-03T06:26:03;7.68;;;6.82;;
43606;SDS011;29197;44.788;10.366;2022-09-03T06:28:53;9.07;;;7.18;;
43606;SDS011;29197;44.788;10.366;2022-09-03T06:31:43;8.75;;;7.70;;
43606;SDS011;29197;44.788;10.366;2022-09-03T06:34:34;9.23;;;7.75;;
43606;SDS011;29197;44.788;10.366;2022-09-03T06:37:24;11.65;;;7.93;;
43606;SDS011;29197;44.788;10.366;2022-09-03T06:40:13;8.00;;;6.47;;
43606;SDS011;29197;44.788;10.366;2022-09-03T06:43:09;8.35;;;6.15;;
43606;SDS011;29197;44.788;10.366;2022-09-03T06:45:59;8.32;;;6.80;;
43606;SDS011;29197;44.788;10.366;2022-09-03T06:48:51;11.50;;;6.55;;
43606;SDS011;29197;44.788;10.366;2022-09-03T06:51:41;5.78;;;5.18;;
43606;SDS011;29197;44.788;10.366;2022-09-03T06:54:30;6.65;;;4.70;;
43606;SDS011;29197;44.788;10.366;2022-09-03T06:57:20;7.30;;;4.82;;
43606;SDS011;29197;44.788;10.366;2022-09-03T07:00:12;6.18;;;5.57;;
43606;SDS011;29197;44.788;10.366;2022-09-03T07:03:02;7.25;;;6.55;;
43606;SDS011;29197;44.788;10.366;2022-09-03T07:05:53;7.38;;;6.07;;
43606;SDS011;29197;44.788;10.366;2022-09-03T07:08:46;7.53;;;6.55;;
43606;SDS011;29197;44.788;10.366;2022-09-03T07:11:36;6.90;;;6.20;;
43606;SDS011;29197;44.788;10.366;2022-09-03T07:14:33;7.20;;;4.93;;
43606;SDS011;29197;44.788;10.366;2022-09-03T07:17:23;7.70;;;6.28;;
43606;SDS011;29197;44.788;10.366;2022-09-03T07:20:13;7.13;;;5.55;;
43606;SDS011;29197;44.788;10.366;2022-09-03T07:23:02;5.50;;;4.95;;
43606;SDS011;29197;44.788;10.366;2022-09-03T07:25:52;8.10;;;5.80;;
43606;SDS011;29197;44.788;10.366;2022-09-03T07:28:42;5.55;;;4.68;;
43606;SDS011;29197;44.788;10.366;2022-09-03T07:31:33;6.75;;;3.92;;
43606;SDS011;29197;44.788;10.366;2022-09-03T07:34:27;6.20;;;5.60;;
43606;SDS011;29197;44.788;10.366;2022-09-03T07:37:16;7.10;;;5.10;;
43606;SDS011;29197;44.788;10.366;2022-09-03T07:40:07;4.55;;;3.92;;
43606;SDS011;29197;44.788;10.366;2022-09-03T07:42:57;6.15;;;4.93;;
43606;SDS011;29197;44.788;10.366;2022-09-03T07:45:49;6.30;;;4.60;;
43606;SDS011;29197;44.788;10.366;2022-09-03T07:48:40;6.18;;;4.82;;
43606;SDS011;29197;44.788;10.366;2022-09-03T07:51:31;6.03;;;5.05;;
43606;SDS011;29197;44.788;10.366;2022-09-03T07:54:21;6.43;;;4.68;;
43606;SDS011;29197;44.788;10.366;2022-09-03T07:57:13;5.97;;;3.85;;
43606;SDS011;29197;44.788;10.366;2022-09-03T08:00:03;5.65;;;4.22;;
43606;SDS011;29197;44.788;10.366;2022-09-03T08:02:53;5.63;;;3.03;;
43606;SDS011;29197;44.788;10.366;2022-09-03T08:05:42;3.90;;;2.78;;
43606;SDS011;29197;44.788;10.366;2022-09-03T08:08:33;4.18;;;3.65;;
43606;SDS011;29197;44.788;10.366;2022-09-03T08:11:23;5.82;;;4.00;;
43606;SDS011;29197;44.788;10.366;2022-09-03T08:14:13;4.40;;;3.47;;
43606;SDS011;29197;44.788;10.366;2022-09-03T08:17:02;4.70;;;3.85;;
43606;SDS011;29197;44.788;10.366;2022-09-03T08:19:53;7.32;;;3.35;;
43606;SDS011;29197;44.788;10.366;2022-09-03T08:22:43;7.15;;;4.07;;
43606;SDS011;29197;44.788;10.366;2022-09-03T08:25:34;6.88;;;4.90;;
43606;SDS011;29197;44.788;10.366;2022-09-03T08:28:23;5.95;;;4.60;;
43606;SDS011;29197;44.788;10.366;2022-09-03T08:31:13;5.47;;;3.50;;
43606;SDS011;29197;44.788;10.366;2022-09-03T08:34:04;4.13;;;3.38;;
43606;SDS011;29197;44.788;10.366;2022-09-03T08:36:54;3.20;;;2.88;;
43606;SDS011;29197;44.788;10.366;2022-09-03T08:39:47;3.30;;;2.97;;
43606;SDS011;29197;44.788;10.366;2022-09-03T08:42:42;3.30;;;3.00;;
43606;SDS011;29197;44.788;10.366;2022-09-03T08:45:38;6.05;;;4.13;;
43606;SDS011;29197;44.788;10.366;2022-09-03T08:48:28;6.07;;;3.60;;
43606;SDS011;29197;44.788;10.366;2022-09-03T08:51:17;6.90;;;3.67;;
43606;SDS011;29197;44.788;10.366;2022-09-03T08:54:13;4.50;;;3.85;;
43606;SDS011;29197;44.788;10.366;2022-09-03T08:57:05;4.72;;;3.22;;
43606;SDS011;29197;44.788;10.366;2022-09-03T08:59:57;5.20;;;3.40;;
43606;SDS011;29197;44.788;10.366;2022-09-03T09:02:52;5.32;;;3.60;;
43606;SDS011;29197;44.788;10.366;2022-09-03T09:05:52;5.95;;;3.28;;
43606;SDS011;29197;44.788;10.366;2022-09-03T09:08:50;5.22;;;4.35;;
43606;SDS011;29197;44.788;10.366;2022-09-03T09:11:49;5.97;;;4.25;;
43606;SDS011;29197;44.788;10.366;2022-09-03T09:14:46;4.97;;;2.92;;
43606;SDS011;29197;44.788;10.366;2022-09-03T09:17:48;5.75;;;4.32;;
43606;SDS011;29197;44.788;10.366;2022-09-03T09:20:43;5.93;;;3.95;;
43606;SDS011;29197;44.788;10.366;2022-09-03T09:23:39;5.32;;;3.58;;
43606;SDS011;29197;44.788;10.366;2022-09-03T09:26:31;4.68;;;3.60;;
43606;SDS011;29197;44.788;10.366;2022-09-03T09:29:21;4.72;;;3.28;;
43606;SDS011;29197;44.788;10.366;2022-09-03T09:32:12;4.85;;;3.67;;
43606;SDS011;29197;44.788;10.366;2022-09-03T09:35:09;4.70;;;3.67;;
43606;SDS011;29197;44.788;10.366;2022-09-03T09:37:58;3.90;;;2.65;;
43606;SDS011;29197;44.788;10.366;2022-09-03T09:40:47;8.00;;;3.70;;
43606;SDS011;29197;44.788;10.366;2022-09-03T09:43:37;6.60;;;3.20;;
43606;SDS011;29197;44.788;10.366;2022-09-03T09:46:28;3.55;;;2.95;;
43606;SDS011;29197;44.788;10.366;2022-09-03T09:49:28;4.13;;;3.17;;
43606;SDS011;29197;44.788;10.366;2022-09-03T09:52:20;4.28;;;3.55;;
43606;SDS011;29197;44.788;10.366;2022-09-03T09:55:13;5.90;;;5.07;;
43606;SDS011;29197;44.788;10.366;2022-09-03T09:58:05;8.35;;;3.88;;
43606;SDS011;29197;44.788;10.366;2022-09-03T10:01:01;6.15;;;4.38;;
43606;SDS011;29197;44.788;10.366;2022-09-03T10:03:59;5.10;;;3.58;;
43606;SDS011;29197;44.788;10.366;2022-09-03T10:06:56;6.38;;;4.78;;
43606;SDS011;29197;44.788;10.366;2022-09-03T10:10:02;6.43;;;3.75;;
43606;SDS011;29197;44.788;10.366;2022-09-03T10:12:54;5.72;;;4.72;;
43606;SDS011;29197;44.788;10.366;2022-09-03T10:15:47;4.57;;;3.83;;
43606;SDS011;29197;44.788;10.366;2022-09-03T10:18:40;4.80;;;3.85;;
43606;SDS011;29197;44.788;10.366;2022-09-03T10:21:35;7.22;;;4.57;;
43606;SDS011;29197;44.788;10.366;2022-09-03T10:24:36;5.50;;;3.50;;
43606;SDS011;29197;44.788;10.366;2022-09-03T10:27:36;7.20;;;3.90;;
43606;SDS011;29197;44.788;10.366;2022-09-03T10:30:27;2.65;;;2.28;;
43606;SDS011;29197;44.788;10.366;2022-09-03T10:33:21;2.83;;;2.30;;
43606;SDS011;29197;44.788;10.366;2022-09-03T10:36:15;3.20;;;2.15;;
43606;SDS011;29197;44.788;10.366;2022-09-03T10:39:12;4.20;;;2.83;;
43606;SDS011;29197;44.788;10.366;2022-09-03T10:42:05;3.47;;;3.17;;
43606;SDS011;29197;44.788;10.366;2022-09-03T10:45:11;4.10;;;2.92;;
43606;SDS011;29197;44.788;10.366;2022-09-03T10:48:24;4.57;;;2.63;;
43606;SDS011;29197;44.788;10.366;2022-09-03T10:51:28;3.03;;;2.38;;
43606;SDS011;29197;44.788;10.366;2022-09-03T10:54:31;4.53;;;2.47;;
43606;SDS011;29197;44.788;10.366;2022-09-03T10:57:32;3.95;;;2.65;;
43606;SDS011;29197;44.788;10.366;2022-09-03T11:00:28;3.90;;;3.08;;
43606;SDS011;29197;44.788;10.366;2022-09-03T11:03:26;5.25;;;3.75;;
43606;SDS011;29197;44.788;10.366;2022-09-03T11:06:34;3.83;;;3.00;;
43606;SDS011;29197;44.788;10.366;2022-09-03T11:09:31;3.85;;;2.60;;
43606;SDS011;29197;44.788;10.366;2022-09-03T11:12:26;4.65;;;2.28;;
43606;SDS011;29197;44.788;10.366;2022-09-03T11:15:19;5.18;;;2.58;;
43606;SDS011;29197;44.788;10.366;2022-09-03T11:18:17;2.72;;;2.53;;
43606;SDS011;29197;44.788;10.366;2022-09-03T11:21:12;3.80;;;3.30;;
43606;SDS011;29197;44.788;10.366;2022-09-03T11:24:05;4.18;;;2.33;;
43606;SDS011;29197;44.788;10.366;2022-09-03T11:27:01;3.83;;;2.80;;
43606;SDS011;29197;44.788;10.366;2022-09-03T11:30:04;5.50;;;3.35;;
43606;SDS011;29197;44.788;10.366;2022-09-03T11:32:55;4.68;;;3.92;;
43606;SDS011;29197;44.788;10.366;2022-09-03T11:35:54;12.38;;;4.18;;
43606;SDS011;29197;44.788;10.366;2022-09-03T11:38:46;4.72;;;3.65;;
43606;SDS011;29197;44.788;10.366;2022-09-03T11:41:36;5.50;;;3.80;;
43606;SDS011;29197;44.788;10.366;2022-09-03T11:44:32;5.45;;;3.38;;
43606;SDS011;29197;44.788;10.366;2022-09-03T11:47:38;4.95;;;3.47;;
43606;SDS011;29197;44.788;10.366;2022-09-03T11:50:28;6.03;;;3.40;;
43606;SDS011;29197;44.788;10.366;2022-09-03T11:53:26;4.72;;;3.65;;
43606;SDS011;29197;44.788;10.366;2022-09-03T11:56:22;3.20;;;2.53;;
43606;SDS011;29197;44.788;10.366;2022-09-03T11:59:16;7.30;;;4.30;;
43606;SDS011;29197;44.788;10.366;2022-09-03T12:02:11;6.63;;;4.55;;
43606;SDS011;29197;44.788;10.366;2022-09-03T12:05:14;4.97;;;2.75;;
43606;SDS011;29197;44.788;10.366;2022-09-03T12:11:36;4.25;;;3.80;;
43606;SDS011;29197;44.788;10.366;2022-09-03T12:14:34;4.85;;;2.92;;
43606;SDS011;29197;44.788;10.366;2022-09-03T12:17:30;7.28;;;4.22;;
43606;SDS011;29197;44.788;10.366;2022-09-03T12:20:26;4.97;;;3.92;;
43606;SDS011;29197;44.788;10.366;2022-09-03T12:23:25;5.28;;;3.30;;
43606;SDS011;29197;44.788;10.366;2022-09-03T12:26:17;4.45;;;3.80;;
43606;SDS011;29197;44.788;10.366;2022-09-03T12:29:19;4.97;;;3.08;;
43606;SDS011;29197;44.788;10.366;2022-09-03T12:32:13;4.00;;;2.95;;
43606;SDS011;29197;44.788;10.366;2022-09-03T12:35:12;4.43;;;2.83;;
43606;SDS011;29197;44.788;10.366;2022-09-03T12:38:23;6.10;;;4.47;;
43606;SDS011;29197;44.788;10.366;2022-09-03T12:41:25;3.00;;;2.67;;
43606;SDS011;29197;44.788;10.366;2022-09-03T12:44:18;2.95;;;2.47;;
43606;SDS011;29197;44.788;10.366;2022-09-03T12:47:13;5.97;;;4.00;;
43606;SDS011;29197;44.788;10.366;2022-09-03T12:50:23;6.82;;;3.20;;
43606;SDS011;29197;44.788;10.366;2022-09-03T12:53:13;3.92;;;2.75;;
43606;SDS011;29197;44.788;10.366;2022-09-03T12:56:07;3.40;;;2.30;;
43606;SDS011;29197;44.788;10.366;2022-09-03T12:59:00;3.83;;;2.60;;
43606;SDS011;29197;44.788;10.366;2022-09-03T13:01:55;3.85;;;2.92;;
43606;SDS011;29197;44.788;10.366;2022-09-03T13:04:49;3.95;;;2.47;;
43606;SDS011;29197;44.788;10.366;2022-09-03T13:07:39;3.75;;;2.75;;
43606;SDS011;29197;44.788;10.366;2022-09-03T13:10:38;5.13;;;2.50;;
43606;SDS011;29197;44.788;10.366;2022-09-03T13:13:30;7.57;;;3.38;;
43606;SDS011;29197;44.788;10.366;2022-09-03T13:19:37;5.88;;;3.30;;
43606;SDS011;29197;44.788;10.366;2022-09-03T13:22:36;5.28;;;3.35;;
43606;SDS011;29197;44.788;10.366;2022-09-03T13:25:39;3.13;;;2.80;;
43606;SDS011;29197;44.788;10.366;2022-09-03T13:28:43;4.93;;;3.03;;
43606;SDS011;29197;44.788;10.366;2022-09-03T13:31:45;2.55;;;2.17;;
43606;SDS011;29197;44.788;10.366;2022-09-03T13:34:38;3.20;;;2.35;;
43606;SDS011;29197;44.788;10.366;2022-09-03T13:37:34;2.53;;;2.20;;
43606;SDS011;29197;44.788;10.366;2022-09-03T13:40:31;3.95;;;2.20;;
43606;SDS011;29197;44.788;10.366;2022-09-03T13:43:27;2.40;;;2.00;;
43606;SDS011;29197;44.788;10.366;2022-09-03T13:46:23;3.00;;;2.22;;
43606;SDS011;29197;44.788;10.366;2022-09-03T13:49:25;2.92;;;2.47;;
43606;SDS011;29197;44.788;10.366;2022-09-03T13:52:39;2.42;;;2.17;;
43606;SDS011;29197;44.788;10.366;2022-09-03T13:55:34;2.30;;;2.10;;
43606;SDS011;29197;44.788;10.366;2022-09-03T13:58:34;4.68;;;3.35;;
43606;SDS011;29197;44.788;10.366;2022-09-03T14:01:36;5.20;;;3.55;;
43606;SDS011;29197;44.788;10.366;2022-09-03T14:04:39;5.70;;;3.25;;
43606;SDS011;29197;44.788;10.366;2022-09-03T14:07:43;5.38;;;3.03;;
43606;SDS011;29197;44.788;10.366;2022-09-03T14:10:48;3.97;;;3.00;;
43606;SDS011;29197;44.788;10.366;2022-09-03T14:13:45;3.40;;;2.25;;
43606;SDS011;29197;44.788;10.366;2022-09-03T14:16:48;6.47;;;2.83;;
43606;SDS011;29197;44.788;10.366;2022-09-03T14:19:47;4.15;;;2.50;;
43606;SDS011;29197;44.788;10.366;2022-09-03T14:22:44;3.13;;;2.50;;
43606;SDS011;29197;44.788;10.366;2022-09-03T14:25:38;3.40;;;2.20;;
43606;SDS011;29197;44.788;10.366;2022-09-03T14:28:34;4.80;;;2.47;;
43606;SDS011;29197;44.788;10.366;2022-09-03T14:31:27;2.85;;;2.47;;
43606;SDS011;29197;44.788;10.366;2022-09-03T14:34:40;3.88;;;3.03;;
43606;SDS011;29197;44.788;10.366;2022-09-03T14:37:54;4.07;;;3.10;;
43606;SDS011;29197;44.788;10.366;2022-09-03T14:40:58;4.03;;;2.88;;
43606;SDS011;29197;44.788;10.366;2022-09-03T14:44:00;4.03;;;2.80;;
43606;SDS011;29197;44.788;10.366;2022-09-03T14:47:08;3.17;;;2.65;;
43606;SDS011;29197;44.788;10.366;2022-09-03T14:50:16;4.20;;;2.67;;
43606;SDS011;29197;44.788;10.366;2022-09-03T14:53:18;2.92;;;2.53;;
43606;SDS011;29197;44.788;10.366;2022-09-03T14:56:36;6.43;;;4.75;;
43606;SDS011;29197;44.788;10.366;2022-09-03T14:59:49;4.60;;;2.60;;
43606;SDS011;29197;44.788;10.366;2022-09-03T15:02:57;2.45;;;2.25;;
43606;SDS011;29197;44.788;10.366;2022-09-03T15:06:09;3.75;;;2.67;;
43606;SDS011;29197;44.788;10.366;2022-09-03T15:12:17;4.75;;;2.63;;
43606;SDS011;29197;44.788;10.366;2022-09-03T15:15:09;4.15;;;2.95;;
43606;SDS011;29197;44.788;10.366;2022-09-03T15:18:08;5.05;;;3.60;;
43606;SDS011;29197;44.788;10.366;2022-09-03T15:21:05;11.60;;;3.72;;
43606;SDS011;29197;44.788;10.366;2022-09-03T15:24:14;3.20;;;2.50;;
43606;SDS011;29197;44.788;10.366;2022-09-03T15:27:16;3.47;;;2.70;;
43606;SDS011;29197;44.788;10.366;2022-09-03T15:30:23;6.68;;;3.25;;
43606;SDS011;29197;44.788;10.366;2022-09-03T15:33:27;4.88;;;3.20;;
43606;SDS011;29197;44.788;10.366;2022-09-03T15:36:23;2.28;;;2.00;;
43606;SDS011;29197;44.788;10.366;2022-09-03T15:39:15;3.97;;;2.45;;
43606;SDS011;29197;44.788;10.366;2022-09-03T15:42:08;3.72;;;2.92;;
43606;SDS011;29197;44.788;10.366;2022-09-03T15:45:04;5.00;;;4.32;;
43606;SDS011;29197;44.788;10.366;2022-09-03T15:48:05;2.85;;;2.03;;
43606;SDS011;29197;44.788;10.366;2022-09-03T15:51:08;6.63;;;3.72;;
43606;SDS011;29197;44.788;10.366;2022-09-03T15:54:09;2.95;;;2.67;;
43606;SDS011;29197;44.788;10.366;2022-09-03T15:57:05;6.65;;;3.30;;
43606;SDS011;29197;44.788;10.366;2022-09-03T16:00:00;2.67;;;2.40;;
43606;SDS011;29197;44.788;10.366;2022-09-03T16:02:54;4.82;;;2.63;;
43606;SDS011;29197;44.788;10.366;2022-09-03T16:05:53;3.25;;;2.35;;
43606;SDS011;29197;44.788;10.366;2022-09-03T16:08:45;3.92;;;2.28;;
43606;SDS011;29197;44.788;10.366;2022-09-03T16:11:51;2.95;;;2.40;;
43606;SDS011;29197;44.788;10.366;2022-09-03T16:14:48;5.22;;;2.28;;
43606;SDS011;29197;44.788;10.366;2022-09-03T16:17:48;3.20;;;2.30;;
43606;SDS011;29197;44.788;10.366;2022-09-03T16:20:43;6.53;;;3.35;;
43606;SDS011;29197;44.788;10.366;2022-09-03T16:23:37;3.60;;;2.50;;
43606;SDS011;29197;44.788;10.366;2022-09-03T16:26:33;2.22;;;2.00;;
43606;SDS011;29197;44.788;10.366;2022-09-03T16:29:29;2.40;;;2.20;;
43606;SDS011;29197;44.788;10.366;2022-09-03T16:32:21;2.70;;;1.88;;
43606;SDS011;29197;44.788;10.366;2022-09-03T16:35:28;3.00;;;2.00;;
43606;SDS011;29197;44.788;10.366;2022-09-03T16:38:31;5.78;;;2.30;;
43606;SDS011;29197;44.788;10.366;2022-09-03T16:41:31;2.38;;;2.08;;
43606;SDS011;29197;44.788;10.366;2022-09-03T16:44:30;2.40;;;1.88;;
43606;SDS011;29197;44.788;10.366;2022-09-03T16:47:33;2.90;;;2.33;;
43606;SDS011;29197;44.788;10.366;2022-09-03T16:50:31;6.47;;;2.33;;
43606;SDS011;29197;44.788;10.366;2022-09-03T16:53:30;2.95;;;2.67;;
43606;SDS011;29197;44.788;10.366;2022-09-03T16:56:35;5.85;;;2.85;;
43606;SDS011;29197;44.788;10.366;2022-09-03T16:59:52;3.45;;;2.10;;
43606;SDS011;29197;44.788;10.366;2022-09-03T17:03:02;4.35;;;2.45;;
43606;SDS011;29197;44.788;10.366;2022-09-03T17:06:14;4.07;;;2.88;;
43606;SDS011;29197;44.788;10.366;2022-09-03T17:09:22;3.22;;;2.88;;
43606;SDS011;29197;44.788;10.366;2022-09-03T17:12:23;6.82;;;2.90;;
43606;SDS011;29197;44.788;10.366;2022-09-03T17:15:18;3.00;;;2.55;;
43606;SDS011;29197;44.788;10.366;2022-09-03T17:18:21;5.45;;;3.25;;
43606;SDS011;29197;44.788;10.366;2022-09-03T17:21:31;4.65;;;3.92;;
43606;SDS011;29197;44.788;10.366;2022-09-03T17:24:35;5.68;;;4.80;;
43606;SDS011;29197;44.788;10.366;2022-09-03T17:27:42;9.32;;;5.15;;
43606;SDS011;29197;44.788;10.366;2022-09-03T17:30:40;8.18;;;4.70;;
43606;SDS011;29197;44.788;10.366;2022-09-03T17:33:45;6.72;;;4.95;;
43606;SDS011;29197;44.788;10.366;2022-09-03T17:36:48;8.10;;;5.30;;
43606;SDS011;29197;44.788;10.366;2022-09-03T17:39:52;8.63;;;6.13;;
43606;SDS011;29197;44.788;10.366;2022-09-03T17:42:53;8.18;;;5.05;;
43606;SDS011;29197;44.788;10.366;2022-09-03T17:45:50;8.82;;;6.47;;
43606;SDS011;29197;44.788;10.366;2022-09-03T17:48:47;10.95;;;6.63;;
43606;SDS011;29197;44.788;10.366;2022-09-03T17:51:40;10.55;;;8.45;;
43606;SDS011;29197;44.788;10.366;2022-09-03T17:54:37;9.68;;;6.88;;
43606;SDS011;29197;44.788;10.366;2022-09-03T17:57:30;14.63;;;10.13;;